sensor_id;sensor_type;location;lat;lon;timestamp;temperature;humidity
8591;DHT22;4333;48.322;14.340;2023-11-21T00:00:26;3.80;99.90
8591;DHT22;4333;48.322;14.340;2023-11-21T00:02:52;3.90;99.90
8591;DHT22;4333;48.322;14.340;2023-11-21T00:05:17;3.90;99.90
8591;DHT22;4333;48.322;14.340;2023-11-21T00:07:43;3.90;99.90
8591;DHT22;4333;48.322;14.340;2023-11-21T00:10:10;3.90;99.90
8591;DHT22;4333;48.322;14.340;2023-11-21T00:12:36;3.90;99.90
8591;DHT22;4333;48.322;14.340;2023-11-21T00:15:02;3.90;99.90
8591;DHT22;4333;48.322;14.340;2023-11-21T00:17:33;3.90;99.90
8591;DHT22;4333;48.322;14.340;2023-11-21T00:19:58;3.90;99.90
8591;DHT22;4333;48.322;14.340;2023-11-21T00:22:24;4.10;99.90
8591;DHT22;4333;48.322;14.340;2023-11-21T00:24:51;4.30;99.90
8591;DHT22;4333;48.322;14.340;2023-11-21T00:27:16;4.20;99.90
8591;DHT22;4333;48.322;14.340;2023-11-21T00:29:42;4.20;99.90
8591;DHT22;4333;48.322;14.340;2023-11-21T00:32:08;4.50;99.90
8591;DHT22;4333;48.322;14.340;2023-11-21T00:34:36;4.70;99.90
8591;DHT22;4333;48.322;14.340;2023-11-21T00:37:04;4.70;99.90
8591;DHT22;4333;48.322;14.340;2023-11-21T00:39:30;4.70;99.90
8591;DHT22;4333;48.322;14.340;2023-11-21T00:41:58;4.40;99.90
8591;DHT22;4333;48.322;14.340;2023-11-21T00:44:24;4.30;99.90
8591;DHT22;4333;48.322;14.340;2023-11-21T00:46:49;4.20;99.90
8591;DHT22;4333;48.322;14.340;2023-11-21T00:49:16;4.10;99.90
8591;DHT22;4333;48.322;14.340;2023-11-21T00:51:41;4.00;99.90
8591;DHT22;4333;48.322;14.340;2023-11-21T00:54:07;4.00;99.90
8591;DHT22;4333;48.322;14.340;2023-11-21T00:56:35;4.00;99.90
8591;DHT22;4333;48.322;14.340;2023-11-21T00:59:00;4.00;99.90
8591;DHT22;4333;48.322;14.340;2023-11-21T01:01:26;4.00;99.90
8591;DHT22;4333;48.322;14.340;2023-11-21T01:03:52;4.00;99.90
8591;DHT22;4333;48.322;14.340;2023-11-21T01:06:17;3.90;99.90
8591;DHT22;4333;48.322;14.340;2023-11-21T01:08:44;3.90;99.90
8591;DHT22;4333;48.322;14.340;2023-11-21T01:11:12;3.90;99.90
8591;DHT22;4333;48.322;14.340;2023-11-21T01:13:41;4.00;99.90
8591;DHT22;4333;48.322;14.340;2023-11-21T01:16:09;4.00;99.90
8591;DHT22;4333;48.322;14.340;2023-11-21T01:18:35;4.00;99.90
8591;DHT22;4333;48.322;14.340;2023-11-21T01:21:03;4.10;99.90
8591;DHT22;4333;48.322;14.340;2023-11-21T01:23:32;4.20;99.90
8591;DHT22;4333;48.322;14.340;2023-11-21T01:25:57;4.30;99.90
8591;DHT22;4333;48.322;14.340;2023-11-21T01:28:23;4.20;99.90
8591;DHT22;4333;48.322;14.340;2023-11-21T01:30:52;4.20;99.90
8591;DHT22;4333;48.322;14.340;2023-11-21T01:33:22;4.30;99.90
8591;DHT22;4333;48.322;14.340;2023-11-21T01:35:53;4.30;99.90
8591;DHT22;4333;48.322;14.340;2023-11-21T01:38:20;4.40;99.90
8591;DHT22;4333;48.322;14.340;2023-11-21T01:40:46;4.40;99.90
8591;DHT22;4333;48.322;14.340;2023-11-21T01:43:14;4.50;99.90
8591;DHT22;4333;48.322;14.340;2023-11-21T01:45:40;4.50;99.90
8591;DHT22;4333;48.322;14.340;2023-11-21T01:48:06;4.60;99.90
8591;DHT22;4333;48.322;14.340;2023-11-21T01:50:32;4.60;99.90
8591;DHT22;4333;48.322;14.340;2023-11-21T01:52:59;4.60;99.90
8591;DHT22;4333;48.322;14.340;2023-11-21T01:55:26;4.60;99.90
8591;DHT22;4333;48.322;14.340;2023-11-21T01:57:52;4.60;99.90
8591;DHT22;4333;48.322;14.340;2023-11-21T02:00:18;4.50;99.90
8591;DHT22;4333;48.322;14.340;2023-11-21T02:02:48;4.50;99.90
8591;DHT22;4333;48.322;14.340;2023-11-21T02:05:18;4.50;99.90
8591;DHT22;4333;48.322;14.340;2023-11-21T02:07:45;4.30;99.90
8591;DHT22;4333;48.322;14.340;2023-11-21T02:10:14;4.20;99.90
8591;DHT22;4333;48.322;14.340;2023-11-21T02:12:40;4.10;99.90
8591;DHT22;4333;48.322;14.340;2023-11-21T02:15:12;4.10;99.90
8591;DHT22;4333;48.322;14.340;2023-11-21T02:17:43;4.20;99.90
8591;DHT22;4333;48.322;14.340;2023-11-21T02:20:11;4.10;99.90
8591;DHT22;4333;48.322;14.340;2023-11-21T02:22:41;4.10;99.90
8591;DHT22;4333;48.322;14.340;2023-11-21T02:25:09;4.00;99.90
8591;DHT22;4333;48.322;14.340;2023-11-21T02:27:37;4.00;99.90
8591;DHT22;4333;48.322;14.340;2023-11-21T02:30:06;4.00;99.90
8591;DHT22;4333;48.322;14.340;2023-11-21T02:32:38;3.90;99.90
8591;DHT22;4333;48.322;14.340;2023-11-21T02:35:05;3.90;99.90
8591;DHT22;4333;48.322;14.340;2023-11-21T02:37:33;3.90;99.90
8591;DHT22;4333;48.322;14.340;2023-11-21T02:40:01;3.80;99.90
8591;DHT22;4333;48.322;14.340;2023-11-21T02:42:30;3.70;99.90
8591;DHT22;4333;48.322;14.340;2023-11-21T02:44:58;3.70;99.90
8591;DHT22;4333;48.322;14.340;2023-11-21T02:47:24;3.80;99.90
8591;DHT22;4333;48.322;14.340;2023-11-21T02:49:50;3.90;99.90
8591;DHT22;4333;48.322;14.340;2023-11-21T02:52:19;3.90;99.90
8591;DHT22;4333;48.322;14.340;2023-11-21T02:54:49;4.00;99.90
8591;DHT22;4333;48.322;14.340;2023-11-21T02:57:17;4.00;99.90
8591;DHT22;4333;48.322;14.340;2023-11-21T02:59:44;4.00;99.90
8591;DHT22;4333;48.322;14.340;2023-11-21T03:02:10;4.00;99.90
8591;DHT22;4333;48.322;14.340;2023-11-21T03:04:35;4.10;99.90
8591;DHT22;4333;48.322;14.340;2023-11-21T03:07:01;4.30;99.90
8591;DHT22;4333;48.322;14.340;2023-11-21T03:09:27;4.40;99.90
8591;DHT22;4333;48.322;14.340;2023-11-21T03:11:55;4.40;99.90
8591;DHT22;4333;48.322;14.340;2023-11-21T03:14:21;4.30;99.90
8591;DHT22;4333;48.322;14.340;2023-11-21T03:16:48;4.30;99.90
8591;DHT22;4333;48.322;14.340;2023-11-21T03:19:14;4.40;99.90
8591;DHT22;4333;48.322;14.340;2023-11-21T03:21:40;4.30;99.90
8591;DHT22;4333;48.322;14.340;2023-11-21T03:24:06;4.30;99.90
8591;DHT22;4333;48.322;14.340;2023-11-21T03:26:33;4.30;99.90
8591;DHT22;4333;48.322;14.340;2023-11-21T03:28:58;4.30;99.90
8591;DHT22;4333;48.322;14.340;2023-11-21T03:31:28;4.30;99.90
8591;DHT22;4333;48.322;14.340;2023-11-21T03:33:54;4.40;99.90
8591;DHT22;4333;48.322;14.340;2023-11-21T03:36:22;4.40;99.90
8591;DHT22;4333;48.322;14.340;2023-11-21T03:38:50;4.30;99.90
8591;DHT22;4333;48.322;14.340;2023-11-21T03:41:18;4.20;99.90
8591;DHT22;4333;48.322;14.340;2023-11-21T03:43:44;4.20;99.90
8591;DHT22;4333;48.322;14.340;2023-11-21T03:46:09;4.20;99.90
8591;DHT22;4333;48.322;14.340;2023-11-21T03:48:35;4.20;99.90
8591;DHT22;4333;48.322;14.340;2023-11-21T03:51:03;4.30;99.90
8591;DHT22;4333;48.322;14.340;2023-11-21T03:53:29;4.20;99.90
8591;DHT22;4333;48.322;14.340;2023-11-21T03:55:54;4.10;99.90
8591;DHT22;4333;48.322;14.340;2023-11-21T03:58:20;4.00;99.90
8591;DHT22;4333;48.322;14.340;2023-11-21T04:00:47;3.90;99.90
8591;DHT22;4333;48.322;14.340;2023-11-21T04:03:14;3.80;99.90
8591;DHT22;4333;48.322;14.340;2023-11-21T04:05:40;3.80;99.90
8591;DHT22;4333;48.322;14.340;2023-11-21T04:08:11;3.80;99.90
8591;DHT22;4333;48.322;14.340;2023-11-21T04:10:37;3.80;99.90
8591;DHT22;4333;48.322;14.340;2023-11-21T04:13:07;3.90;99.90
8591;DHT22;4333;48.322;14.340;2023-11-21T04:15:33;3.90;99.90
8591;DHT22;4333;48.322;14.340;2023-11-21T04:18:01;3.80;99.90
8591;DHT22;4333;48.322;14.340;2023-11-21T04:20:27;3.80;99.90
8591;DHT22;4333;48.322;14.340;2023-11-21T04:22:53;3.80;99.90
8591;DHT22;4333;48.322;14.340;2023-11-21T04:25:21;3.80;99.90
8591;DHT22;4333;48.322;14.340;2023-11-21T04:27:48;3.90;99.90
8591;DHT22;4333;48.322;14.340;2023-11-21T04:30:15;3.80;99.90
8591;DHT22;4333;48.322;14.340;2023-11-21T04:32:43;3.70;99.90
8591;DHT22;4333;48.322;14.340;2023-11-21T04:35:09;3.70;99.90
8591;DHT22;4333;48.322;14.340;2023-11-21T04:37:35;3.70;99.90
8591;DHT22;4333;48.322;14.340;2023-11-21T04:40:06;3.60;99.90
8591;DHT22;4333;48.322;14.340;2023-11-21T04:42:38;3.60;99.90
8591;DHT22;4333;48.322;14.340;2023-11-21T04:45:06;3.70;99.90
8591;DHT22;4333;48.322;14.340;2023-11-21T04:47:38;3.70;99.90
8591;DHT22;4333;48.322;14.340;2023-11-21T04:50:06;3.70;99.90
8591;DHT22;4333;48.322;14.340;2023-11-21T04:52:34;3.70;99.90
8591;DHT22;4333;48.322;14.340;2023-11-21T04:55:02;3.70;99.90
8591;DHT22;4333;48.322;14.340;2023-11-21T04:57:34;3.70;99.90
8591;DHT22;4333;48.322;14.340;2023-11-21T05:00:00;3.70;99.90
8591;DHT22;4333;48.322;14.340;2023-11-21T05:02:25;3.60;99.90
8591;DHT22;4333;48.322;14.340;2023-11-21T05:04:51;3.80;99.90
8591;DHT22;4333;48.322;14.340;2023-11-21T05:07:17;3.70;99.90
8591;DHT22;4333;48.322;14.340;2023-11-21T05:09:46;3.90;99.90
8591;DHT22;4333;48.322;14.340;2023-11-21T05:12:12;4.10;99.90
8591;DHT22;4333;48.322;14.340;2023-11-21T05:14:41;4.10;99.90
8591;DHT22;4333;48.322;14.340;2023-11-21T05:17:09;4.10;99.90
8591;DHT22;4333;48.322;14.340;2023-11-21T05:19:35;4.20;99.90
8591;DHT22;4333;48.322;14.340;2023-11-21T05:22:03;4.00;99.90
8591;DHT22;4333;48.322;14.340;2023-11-21T05:24:31;3.90;99.90
8591;DHT22;4333;48.322;14.340;2023-11-21T05:26:57;3.90;99.90
8591;DHT22;4333;48.322;14.340;2023-11-21T05:29:23;4.00;99.90
8591;DHT22;4333;48.322;14.340;2023-11-21T05:31:49;4.00;99.90
8591;DHT22;4333;48.322;14.340;2023-11-21T05:34:15;3.90;99.90
8591;DHT22;4333;48.322;14.340;2023-11-21T05:36:43;3.70;99.90
8591;DHT22;4333;48.322;14.340;2023-11-21T05:39:09;3.70;99.90
8591;DHT22;4333;48.322;14.340;2023-11-21T05:41:36;3.70;99.90
8591;DHT22;4333;48.322;14.340;2023-11-21T05:44:02;3.60;99.90
8591;DHT22;4333;48.322;14.340;2023-11-21T05:46:30;3.60;99.90
8591;DHT22;4333;48.322;14.340;2023-11-21T05:48:56;3.60;99.90
8591;DHT22;4333;48.322;14.340;2023-11-21T05:51:26;3.70;99.90
8591;DHT22;4333;48.322;14.340;2023-11-21T05:53:57;3.60;99.90
8591;DHT22;4333;48.322;14.340;2023-11-21T05:56:23;3.60;99.90
8591;DHT22;4333;48.322;14.340;2023-11-21T05:58:48;3.70;99.90
8591;DHT22;4333;48.322;14.340;2023-11-21T06:01:16;3.80;99.90
8591;DHT22;4333;48.322;14.340;2023-11-21T06:03:45;3.70;99.90
8591;DHT22;4333;48.322;14.340;2023-11-21T06:06:11;3.60;99.90
8591;DHT22;4333;48.322;14.340;2023-11-21T06:08:37;3.60;99.90
8591;DHT22;4333;48.322;14.340;2023-11-21T06:11:11;3.60;99.90
8591;DHT22;4333;48.322;14.340;2023-11-21T06:13:37;3.60;99.90
8591;DHT22;4333;48.322;14.340;2023-11-21T06:16:03;3.70;99.90
8591;DHT22;4333;48.322;14.340;2023-11-21T06:18:30;3.80;99.90
8591;DHT22;4333;48.322;14.340;2023-11-21T06:21:01;3.80;99.90
8591;DHT22;4333;48.322;14.340;2023-11-21T06:23:27;3.80;99.90
8591;DHT22;4333;48.322;14.340;2023-11-21T06:25:52;3.80;99.90
8591;DHT22;4333;48.322;14.340;2023-11-21T06:28:28;3.80;99.90
8591;DHT22;4333;48.322;14.340;2023-11-21T06:30:53;3.80;99.90
8591;DHT22;4333;48.322;14.340;2023-11-21T06:33:19;3.90;99.90
8591;DHT22;4333;48.322;14.340;2023-11-21T06:35:47;3.80;99.90
8591;DHT22;4333;48.322;14.340;2023-11-21T06:38:13;3.90;99.90
8591;DHT22;4333;48.322;14.340;2023-11-21T06:40:40;3.90;99.90
8591;DHT22;4333;48.322;14.340;2023-11-21T06:43:09;3.90;99.90
8591;DHT22;4333;48.322;14.340;2023-11-21T06:45:35;4.00;99.90
8591;DHT22;4333;48.322;14.340;2023-11-21T06:48:06;4.10;99.90
8591;DHT22;4333;48.322;14.340;2023-11-21T06:50:31;4.20;99.90
8591;DHT22;4333;48.322;14.340;2023-11-21T06:52:57;4.30;99.90
8591;DHT22;4333;48.322;14.340;2023-11-21T06:55:25;4.30;99.90
8591;DHT22;4333;48.322;14.340;2023-11-21T06:57:55;4.40;99.90
8591;DHT22;4333;48.322;14.340;2023-11-21T07:00:21;4.40;99.90
8591;DHT22;4333;48.322;14.340;2023-11-21T07:02:49;4.40;99.90
8591;DHT22;4333;48.322;14.340;2023-11-21T07:05:21;4.50;99.90
8591;DHT22;4333;48.322;14.340;2023-11-21T07:07:47;4.50;99.90
8591;DHT22;4333;48.322;14.340;2023-11-21T07:10:14;4.50;99.90
8591;DHT22;4333;48.322;14.340;2023-11-21T07:12:40;4.50;99.90
8591;DHT22;4333;48.322;14.340;2023-11-21T07:15:06;4.50;99.90
8591;DHT22;4333;48.322;14.340;2023-11-21T07:17:35;4.60;99.90
8591;DHT22;4333;48.322;14.340;2023-11-21T07:20:01;4.60;99.90
8591;DHT22;4333;48.322;14.340;2023-11-21T07:22:27;4.60;99.90
8591;DHT22;4333;48.322;14.340;2023-11-21T07:24:53;4.60;99.90
8591;DHT22;4333;48.322;14.340;2023-11-21T07:27:18;4.80;99.90
8591;DHT22;4333;48.322;14.340;2023-11-21T07:29:44;5.00;99.90
8591;DHT22;4333;48.322;14.340;2023-11-21T07:32:13;5.00;99.90
8591;DHT22;4333;48.322;14.340;2023-11-21T07:34:40;5.00;99.90
8591;DHT22;4333;48.322;14.340;2023-11-21T07:37:07;5.00;99.90
8591;DHT22;4333;48.322;14.340;2023-11-21T07:39:36;5.20;99.90
8591;DHT22;4333;48.322;14.340;2023-11-21T07:42:02;5.30;99.90
8591;DHT22;4333;48.322;14.340;2023-11-21T07:44:28;5.40;99.90
8591;DHT22;4333;48.322;14.340;2023-11-21T07:46:56;5.40;99.90
8591;DHT22;4333;48.322;14.340;2023-11-21T07:49:26;5.50;99.90
8591;DHT22;4333;48.322;14.340;2023-11-21T07:51:52;5.60;99.90
8591;DHT22;4333;48.322;14.340;2023-11-21T07:54:18;5.60;99.90
8591;DHT22;4333;48.322;14.340;2023-11-21T07:56:47;5.60;99.90
8591;DHT22;4333;48.322;14.340;2023-11-21T07:59:12;5.70;99.90
8591;DHT22;4333;48.322;14.340;2023-11-21T08:01:39;5.80;99.90
8591;DHT22;4333;48.322;14.340;2023-11-21T08:04:08;5.90;99.90
8591;DHT22;4333;48.322;14.340;2023-11-21T08:06:36;6.00;99.90
8591;DHT22;4333;48.322;14.340;2023-11-21T08:09:02;6.10;99.90
8591;DHT22;4333;48.322;14.340;2023-11-21T08:11:28;6.20;99.90
8591;DHT22;4333;48.322;14.340;2023-11-21T08:13:57;6.20;99.90
8591;DHT22;4333;48.322;14.340;2023-11-21T08:16:24;6.20;99.90
8591;DHT22;4333;48.322;14.340;2023-11-21T08:18:50;6.40;99.90
8591;DHT22;4333;48.322;14.340;2023-11-21T08:21:15;6.50;99.90
8591;DHT22;4333;48.322;14.340;2023-11-21T08:23:41;6.50;99.90
8591;DHT22;4333;48.322;14.340;2023-11-21T08:26:09;6.50;99.90
8591;DHT22;4333;48.322;14.340;2023-11-21T08:28:34;6.50;99.90
8591;DHT22;4333;48.322;14.340;2023-11-21T08:31:01;6.40;99.90
8591;DHT22;4333;48.322;14.340;2023-11-21T08:33:27;6.40;99.90
8591;DHT22;4333;48.322;14.340;2023-11-21T08:35:55;6.40;99.90
8591;DHT22;4333;48.322;14.340;2023-11-21T08:38:23;6.50;99.90
8591;DHT22;4333;48.322;14.340;2023-11-21T08:40:51;6.50;99.90
8591;DHT22;4333;48.322;14.340;2023-11-21T08:43:19;6.50;99.90
8591;DHT22;4333;48.322;14.340;2023-11-21T08:45:47;6.60;99.90
8591;DHT22;4333;48.322;14.340;2023-11-21T08:48:13;6.60;99.90
8591;DHT22;4333;48.322;14.340;2023-11-21T08:50:39;6.70;99.90
8591;DHT22;4333;48.322;14.340;2023-11-21T08:53:04;6.70;99.90
8591;DHT22;4333;48.322;14.340;2023-11-21T08:55:31;6.80;99.90
8591;DHT22;4333;48.322;14.340;2023-11-21T08:57:56;6.90;99.90
8591;DHT22;4333;48.322;14.340;2023-11-21T09:00:24;6.90;99.90
8591;DHT22;4333;48.322;14.340;2023-11-21T09:02:52;7.00;99.90
8591;DHT22;4333;48.322;14.340;2023-11-21T09:05:18;7.00;99.90
8591;DHT22;4333;48.322;14.340;2023-11-21T09:07:46;7.00;99.90
8591;DHT22;4333;48.322;14.340;2023-11-21T09:10:14;7.10;99.90
8591;DHT22;4333;48.322;14.340;2023-11-21T09:12:43;7.10;99.90
8591;DHT22;4333;48.322;14.340;2023-11-21T09:15:09;7.20;99.90
8591;DHT22;4333;48.322;14.340;2023-11-21T09:17:36;7.30;99.90
8591;DHT22;4333;48.322;14.340;2023-11-21T09:20:06;7.40;99.90
8591;DHT22;4333;48.322;14.340;2023-11-21T09:22:35;7.40;99.90
8591;DHT22;4333;48.322;14.340;2023-11-21T09:25:03;7.50;99.90
8591;DHT22;4333;48.322;14.340;2023-11-21T09:27:34;7.50;99.90
8591;DHT22;4333;48.322;14.340;2023-11-21T09:30:03;7.70;99.90
8591;DHT22;4333;48.322;14.340;2023-11-21T09:32:37;7.70;99.90
8591;DHT22;4333;48.322;14.340;2023-11-21T09:35:06;7.80;99.90
8591;DHT22;4333;48.322;14.340;2023-11-21T09:37:34;7.80;99.90
8591;DHT22;4333;48.322;14.340;2023-11-21T09:40:04;7.80;99.90
8591;DHT22;4333;48.322;14.340;2023-11-21T09:42:38;7.90;99.90
8591;DHT22;4333;48.322;14.340;2023-11-21T09:45:27;8.00;99.90
8591;DHT22;4333;48.322;14.340;2023-11-21T09:47:57;8.00;99.90
8591;DHT22;4333;48.322;14.340;2023-11-21T09:50:25;8.10;99.90
8591;DHT22;4333;48.322;14.340;2023-11-21T09:53:18;8.00;99.90
8591;DHT22;4333;48.322;14.340;2023-11-21T09:55:53;8.10;99.90
8591;DHT22;4333;48.322;14.340;2023-11-21T09:58:19;8.20;99.90
8591;DHT22;4333;48.322;14.340;2023-11-21T10:00:48;8.30;99.90
8591;DHT22;4333;48.322;14.340;2023-11-21T10:03:14;8.30;99.90
8591;DHT22;4333;48.322;14.340;2023-11-21T10:05:43;8.40;99.90
8591;DHT22;4333;48.322;14.340;2023-11-21T10:08:13;8.50;99.90
8591;DHT22;4333;48.322;14.340;2023-11-21T10:10:45;8.60;99.90
8591;DHT22;4333;48.322;14.340;2023-11-21T10:13:14;8.70;99.90
8591;DHT22;4333;48.322;14.340;2023-11-21T10:15:44;8.70;99.90
8591;DHT22;4333;48.322;14.340;2023-11-21T10:18:15;8.80;99.90
8591;DHT22;4333;48.322;14.340;2023-11-21T10:20:41;8.80;99.90
8591;DHT22;4333;48.322;14.340;2023-11-21T10:23:07;8.80;99.90
8591;DHT22;4333;48.322;14.340;2023-11-21T10:25:36;8.80;99.90
8591;DHT22;4333;48.322;14.340;2023-11-21T10:28:03;8.80;99.90
8591;DHT22;4333;48.322;14.340;2023-11-21T10:30:37;8.80;99.90
8591;DHT22;4333;48.322;14.340;2023-11-21T10:33:06;8.50;99.90
8591;DHT22;4333;48.322;14.340;2023-11-21T10:35:46;8.50;99.90
8591;DHT22;4333;48.322;14.340;2023-11-21T10:38:13;8.50;99.90
8591;DHT22;4333;48.322;14.340;2023-11-21T10:40:43;8.50;99.90
8591;DHT22;4333;48.322;14.340;2023-11-21T10:43:10;8.60;99.90
8591;DHT22;4333;48.322;14.340;2023-11-21T10:45:40;8.50;99.90
8591;DHT22;4333;48.322;14.340;2023-11-21T10:48:06;8.60;99.90
8591;DHT22;4333;48.322;14.340;2023-11-21T10:50:46;8.70;99.90
8591;DHT22;4333;48.322;14.340;2023-11-21T10:53:12;8.60;99.90
8591;DHT22;4333;48.322;14.340;2023-11-21T10:55:38;8.50;99.90
8591;DHT22;4333;48.322;14.340;2023-11-21T10:58:05;8.30;99.90
8591;DHT22;4333;48.322;14.340;2023-11-21T11:00:36;8.20;99.90
8591;DHT22;4333;48.322;14.340;2023-11-21T11:03:03;8.20;99.90
8591;DHT22;4333;48.322;14.340;2023-11-21T11:05:29;8.10;99.90
8591;DHT22;4333;48.322;14.340;2023-11-21T11:08:08;8.10;99.90
8591;DHT22;4333;48.322;14.340;2023-11-21T11:10:35;8.20;99.90
8591;DHT22;4333;48.322;14.340;2023-11-21T11:13:04;8.10;99.90
8591;DHT22;4333;48.322;14.340;2023-11-21T11:15:36;8.20;99.90
8591;DHT22;4333;48.322;14.340;2023-11-21T11:18:03;8.20;99.90
8591;DHT22;4333;48.322;14.340;2023-11-21T11:20:34;8.20;99.90
8591;DHT22;4333;48.322;14.340;2023-11-21T11:23:38;8.20;99.90
8591;DHT22;4333;48.322;14.340;2023-11-21T11:39:29;8.20;99.90
8591;DHT22;4333;48.322;14.340;2023-11-21T11:41:59;8.30;99.90
8591;DHT22;4333;48.322;14.340;2023-11-21T11:44:53;8.30;99.90
8591;DHT22;4333;48.322;14.340;2023-11-21T11:52:36;8.20;99.90
8591;DHT22;4333;48.322;14.340;2023-11-21T11:55:17;8.20;99.90
8591;DHT22;4333;48.322;14.340;2023-11-21T11:57:47;8.30;99.90
8591;DHT22;4333;48.322;14.340;2023-11-21T12:00:17;8.30;99.90
8591;DHT22;4333;48.322;14.340;2023-11-21T12:02:51;8.30;99.90
8591;DHT22;4333;48.322;14.340;2023-11-21T12:05:19;8.40;99.90
8591;DHT22;4333;48.322;14.340;2023-11-21T12:07:48;8.40;99.90
8591;DHT22;4333;48.322;14.340;2023-11-21T12:10:15;8.40;99.90
8591;DHT22;4333;48.322;14.340;2023-11-21T12:12:48;8.50;99.90
8591;DHT22;4333;48.322;14.340;2023-11-21T12:15:14;8.60;99.90
8591;DHT22;4333;48.322;14.340;2023-11-21T12:17:42;8.60;99.90
8591;DHT22;4333;48.322;14.340;2023-11-21T12:20:15;8.50;99.90
8591;DHT22;4333;48.322;14.340;2023-11-21T12:22:56;8.50;99.90
8591;DHT22;4333;48.322;14.340;2023-11-21T12:25:29;8.50;99.90
8591;DHT22;4333;48.322;14.340;2023-11-21T12:27:57;8.50;99.90
8591;DHT22;4333;48.322;14.340;2023-11-21T12:30:28;8.60;99.90
8591;DHT22;4333;48.322;14.340;2023-11-21T12:32:57;8.60;99.90
8591;DHT22;4333;48.322;14.340;2023-11-21T12:35:31;8.70;99.90
8591;DHT22;4333;48.322;14.340;2023-11-21T12:37:59;8.70;99.90
8591;DHT22;4333;48.322;14.340;2023-11-21T12:40:25;8.70;99.90
8591;DHT22;4333;48.322;14.340;2023-11-21T12:42:53;8.70;99.90
8591;DHT22;4333;48.322;14.340;2023-11-21T12:45:26;8.70;99.90
8591;DHT22;4333;48.322;14.340;2023-11-21T12:50:23;8.90;99.90
8591;DHT22;4333;48.322;14.340;2023-11-21T12:52:52;9.00;99.90
8591;DHT22;4333;48.322;14.340;2023-11-21T12:55:20;9.00;99.90
8591;DHT22;4333;48.322;14.340;2023-11-21T12:57:54;9.10;99.90
8591;DHT22;4333;48.322;14.340;2023-11-21T13:00:39;9.00;99.90
8591;DHT22;4333;48.322;14.340;2023-11-21T13:03:10;8.90;99.90
8591;DHT22;4333;48.322;14.340;2023-11-21T13:05:39;8.90;99.90
8591;DHT22;4333;48.322;14.340;2023-11-21T13:08:06;8.90;99.90
8591;DHT22;4333;48.322;14.340;2023-11-21T13:10:39;8.90;99.90
8591;DHT22;4333;48.322;14.340;2023-11-21T13:13:07;8.90;99.90
8591;DHT22;4333;48.322;14.340;2023-11-21T13:15:52;8.90;99.90
8591;DHT22;4333;48.322;14.340;2023-11-21T13:18:21;9.00;99.90
8591;DHT22;4333;48.322;14.340;2023-11-21T13:20:47;8.90;99.90
8591;DHT22;4333;48.322;14.340;2023-11-21T13:23:12;8.90;99.90
8591;DHT22;4333;48.322;14.340;2023-11-21T13:25:42;8.90;99.90
8591;DHT22;4333;48.322;14.340;2023-11-21T13:28:08;8.90;99.90
8591;DHT22;4333;48.322;14.340;2023-11-21T13:30:35;8.90;99.90
8591;DHT22;4333;48.322;14.340;2023-11-21T13:33:07;9.00;99.90
8591;DHT22;4333;48.322;14.340;2023-11-21T13:35:38;8.90;99.90
8591;DHT22;4333;48.322;14.340;2023-11-21T13:38:09;9.00;99.90
8591;DHT22;4333;48.322;14.340;2023-11-21T13:40:36;8.90;99.90
8591;DHT22;4333;48.322;14.340;2023-11-21T13:43:19;9.00;99.90
8591;DHT22;4333;48.322;14.340;2023-11-21T13:45:47;9.00;99.90
8591;DHT22;4333;48.322;14.340;2023-11-21T13:48:17;9.00;99.90
8591;DHT22;4333;48.322;14.340;2023-11-21T13:50:51;9.00;99.90
8591;DHT22;4333;48.322;14.340;2023-11-21T13:53:36;9.10;99.90
8591;DHT22;4333;48.322;14.340;2023-11-21T13:56:03;9.10;99.90
8591;DHT22;4333;48.322;14.340;2023-11-21T13:58:31;9.20;99.90
8591;DHT22;4333;48.322;14.340;2023-11-21T14:01:20;9.10;99.90
8591;DHT22;4333;48.322;14.340;2023-11-21T14:04:01;9.00;99.90
8591;DHT22;4333;48.322;14.340;2023-11-21T14:06:51;9.10;99.90
8591;DHT22;4333;48.322;14.340;2023-11-21T14:09:21;9.10;99.90
8591;DHT22;4333;48.322;14.340;2023-11-21T14:11:58;9.00;99.90
8591;DHT22;4333;48.322;14.340;2023-11-21T14:14:26;9.10;99.90
8591;DHT22;4333;48.322;14.340;2023-11-21T14:16:53;9.10;99.90
8591;DHT22;4333;48.322;14.340;2023-11-21T14:19:19;9.10;99.90
8591;DHT22;4333;48.322;14.340;2023-11-21T14:21:48;9.10;99.90
8591;DHT22;4333;48.322;14.340;2023-11-21T14:24:16;9.00;99.90
8591;DHT22;4333;48.322;14.340;2023-11-21T14:26:44;9.00;99.90
8591;DHT22;4333;48.322;14.340;2023-11-21T14:29:12;8.90;99.90
8591;DHT22;4333;48.322;14.340;2023-11-21T14:31:40;8.90;99.90
8591;DHT22;4333;48.322;14.340;2023-11-21T14:34:07;9.00;99.90
8591;DHT22;4333;48.322;14.340;2023-11-21T14:36:33;9.00;99.90
8591;DHT22;4333;48.322;14.340;2023-11-21T14:38:59;8.90;99.90
8591;DHT22;4333;48.322;14.340;2023-11-21T14:41:27;8.90;99.90
8591;DHT22;4333;48.322;14.340;2023-11-21T14:43:57;8.90;99.90
8591;DHT22;4333;48.322;14.340;2023-11-21T14:46:29;8.80;99.90
8591;DHT22;4333;48.322;14.340;2023-11-21T14:48:58;8.80;99.90
8591;DHT22;4333;48.322;14.340;2023-11-21T14:51:28;8.80;99.90
8591;DHT22;4333;48.322;14.340;2023-11-21T14:54:06;8.80;99.90
8591;DHT22;4333;48.322;14.340;2023-11-21T14:56:43;8.80;99.90
8591;DHT22;4333;48.322;14.340;2023-11-21T14:59:11;8.80;99.90
8591;DHT22;4333;48.322;14.340;2023-11-21T15:01:42;8.80;99.90
8591;DHT22;4333;48.322;14.340;2023-11-21T15:04:23;8.80;99.90
8591;DHT22;4333;48.322;14.340;2023-11-21T15:07:01;8.70;99.90
8591;DHT22;4333;48.322;14.340;2023-11-21T15:09:28;8.70;99.90
8591;DHT22;4333;48.322;14.340;2023-11-21T15:12:03;8.70;99.90
8591;DHT22;4333;48.322;14.340;2023-11-21T15:14:47;8.70;99.90
8591;DHT22;4333;48.322;14.340;2023-11-21T15:17:15;8.70;99.90
8591;DHT22;4333;48.322;14.340;2023-11-21T15:20:00;8.70;99.90
8591;DHT22;4333;48.322;14.340;2023-11-21T15:22:26;8.70;99.90
8591;DHT22;4333;48.322;14.340;2023-11-21T15:24:55;8.60;99.90
8591;DHT22;4333;48.322;14.340;2023-11-21T15:27:23;8.70;99.90
8591;DHT22;4333;48.322;14.340;2023-11-21T15:29:50;8.60;99.90
8591;DHT22;4333;48.322;14.340;2023-11-21T15:32:18;8.60;99.90
8591;DHT22;4333;48.322;14.340;2023-11-21T15:34:47;8.60;99.90
8591;DHT22;4333;48.322;14.340;2023-11-21T15:37:13;8.60;99.90
8591;DHT22;4333;48.322;14.340;2023-11-21T15:39:39;8.50;99.90
8591;DHT22;4333;48.322;14.340;2023-11-21T15:42:05;8.50;99.90
8591;DHT22;4333;48.322;14.340;2023-11-21T15:44:35;8.50;99.90
8591;DHT22;4333;48.322;14.340;2023-11-21T15:47:00;8.50;99.90
8591;DHT22;4333;48.322;14.340;2023-11-21T15:49:29;8.50;99.90
8591;DHT22;4333;48.322;14.340;2023-11-21T15:51:57;8.50;99.90
8591;DHT22;4333;48.322;14.340;2023-11-21T15:54:26;8.50;99.90
8591;DHT22;4333;48.322;14.340;2023-11-21T15:56:54;8.50;99.90
8591;DHT22;4333;48.322;14.340;2023-11-21T15:59:28;8.40;99.90
8591;DHT22;4333;48.322;14.340;2023-11-21T16:01:57;8.40;99.90
8591;DHT22;4333;48.322;14.340;2023-11-21T16:04:25;8.40;99.90
8591;DHT22;4333;48.322;14.340;2023-11-21T16:06:54;8.40;99.90
8591;DHT22;4333;48.322;14.340;2023-11-21T16:09:22;8.40;99.90
8591;DHT22;4333;48.322;14.340;2023-11-21T16:11:54;8.40;99.90
8591;DHT22;4333;48.322;14.340;2023-11-21T16:14:26;8.40;99.90
8591;DHT22;4333;48.322;14.340;2023-11-21T16:16:55;8.40;99.90
8591;DHT22;4333;48.322;14.340;2023-11-21T16:19:22;8.30;99.90
8591;DHT22;4333;48.322;14.340;2023-11-21T16:21:47;8.20;99.90
8591;DHT22;4333;48.322;14.340;2023-11-21T16:24:15;8.10;99.90
8591;DHT22;4333;48.322;14.340;2023-11-21T16:26:47;8.00;99.90
8591;DHT22;4333;48.322;14.340;2023-11-21T16:29:16;7.90;99.90
8591;DHT22;4333;48.322;14.340;2023-11-21T16:31:44;7.70;99.90